Latest Weather Forecast - Tuesday 14th September 2021 (6 am)

Forecast Period: 

 6 am 14th September to 12 noon 14th September 2021 

Synopsis:

A weak tropical wave is crossing islands

Forecast:

Partly cloudy and slightly hazy; with a few showers

Weather Advisory/Warning:

None

Winds:

E – ESE at 10 – 20 km/h (6 – 12 mph)

Sea Conditions:

Slight in open water; north-easterly swells (0.5 – 1.0 m)

Marine Advisory/Warning:

None
Upcoming Tides:
 High: 11:46 am ****
 Low:

****

07:53 pm

Aviation WX

[Source: ADDS]
METAR
TVSA 271100Z 00000KT 9999 BKN016 27/25 Q1014 TEMPO SHRA =
TVSA 271100Z 2712/2812 11004KT 9999 FEW012CB SCT016 TEMPO 2712/2715 5000 TSRA SCT012CB BKN014
TAF
TVSA 271100Z 2712/2812 11004KT 9999 FEW012CB SCT016 TEMPO 2712/2715 5000 TSRA SCT012CB BKN014 =
SR / SS: 09:53 / 21:57 UTC (Sunrise Sunset 2021-09-27)